Time;durP1;ratioP1;P1;durP2;ratioP2;P2;SDS_P1;SDS_P2;PMS_P1;PMS_P2;Temp;Humidity;BMP_temperature;BMP_pressure;BME280_temperature;BME280_humidity;BME280_pressure;Samples;Min_cycle;Max_cycle;Signal;HPM_P1;HPM_P2
2023/01/14 00:00:01;;;;;;;13.63;3.50;;;;;6.00;101096.00;;;;9855573;30;20227;-77
2023/01/14 00:05:05;;;;;;;19.03;3.87;;;;;6.00;101099.00;;;;9873532;30;20195;-77
2023/01/14 00:10:08;;;;;;;19.53;3.37;;;;;6.00;101092.00;;;;9844260;30;20318;-77
2023/01/14 00:15:10;;;;;;;25.23;4.33;;;;;5.90;101081.00;;;;9850809;30;20256;-77
2023/01/14 00:20:12;;;;;;;16.33;3.33;;;;;5.90;101080.00;;;;9882816;30;20276;-77
2023/01/14 00:25:14;;;;;;;16.90;3.77;;;;;6.00;101083.00;;;;9886137;30;20279;-77
2023/01/14 00:30:16;;;;;;;21.73;4.30;;;;;6.00;101076.00;;;;9844719;29;20212;-77
2023/01/14 00:35:18;;;;;;;19.77;3.40;;;;;6.00;101089.00;;;;9880862;30;20207;-78
2023/01/14 00:40:20;;;;;;;12.30;2.90;;;;;6.00;101089.00;;;;9893143;30;20482;-78
2023/01/14 00:45:25;;;;;;;18.17;4.57;;;;;6.00;101079.00;;;;9878453;30;20223;-78
2023/01/14 00:50:27;;;;;;;17.90;3.43;;;;;6.00;101080.00;;;;9907911;30;20196;-78
2023/01/14 00:55:29;;;;;;;19.83;3.43;;;;;6.00;101083.00;;;;9878652;30;20231;-77
2023/01/14 01:00:32;;;;;;;21.90;2.90;;;;;6.00;101072.00;;;;9902772;29;20745;-77
2023/01/14 01:05:35;;;;;;;13.43;2.90;;;;;6.10;101075.00;;;;9867165;30;20204;-78
2023/01/14 01:10:37;;;;;;;11.73;2.87;;;;;6.10;101060.00;;;;9882147;29;20228;-78
2023/01/14 01:15:40;;;;;;;18.07;3.30;;;;;6.10;101045.00;;;;9888783;30;20211;-77
2023/01/14 01:20:42;;;;;;;10.63;2.60;;;;;6.10;101032.00;;;;9898048;30;20302;-78
2023/01/14 01:25:44;;;;;;;18.40;2.90;;;;;6.10;101014.00;;;;9891361;30;20223;-77
2023/01/14 01:30:46;;;;;;;22.13;3.70;;;;;6.20;101023.00;;;;9892609;30;20203;-77
2023/01/14 01:35:49;;;;;;;19.53;2.80;;;;;6.30;101042.00;;;;9892812;30;20238;-78
2023/01/14 01:40:51;;;;;;;13.50;2.83;;;;;6.30;101054.00;;;;9895145;30;20231;-78
2023/01/14 01:45:57;;;;;;;15.03;2.33;;;;;6.30;101042.00;;;;9888311;30;20204;-78
2023/01/14 01:51:05;;;;;;;19.63;2.73;;;;;6.40;101040.00;;;;9907409;30;20196;-78
2023/01/14 01:56:11;;;;;;;18.87;4.13;;;;;6.40;101035.00;;;;9906553;29;20671;-77
2023/01/14 02:01:14;;;;;;;21.03;3.50;;;;;6.50;101036.00;;;;9879623;30;20207;-78
2023/01/14 02:06:16;;;;;;;11.87;2.83;;;;;6.50;101017.00;;;;9876154;30;20211;-78
2023/01/14 02:11:56;;;;;;;22.70;3.13;;;;;6.60;100996.00;;;;9900244;29;20326;-78
2023/01/14 02:17:32;;;;;;;18.30;3.13;;;;;6.60;100985.00;;;;9881581;30;20231;-78
2023/01/14 02:22:33;;;;;;;13.70;2.27;;;;;6.60;100964.00;;;;9878367;30;20579;-78
2023/01/14 02:27:47;;;;;;;15.17;2.70;;;;;6.50;100957.00;;;;9880854;30;20196;-77
2023/01/14 02:33:09;;;;;;;8.83;3.23;;;;;6.50;100958.00;;;;9875637;30;20233;-78
2023/01/14 02:38:13;;;;;;;12.77;2.87;;;;;6.40;100954.00;;;;9865794;30;20211;-78
2023/01/14 02:44:24;;;;;;;14.97;2.73;;;;;6.40;100952.00;;;;9881235;30;20221;-78
2023/01/14 02:48:55;;;;;;;19.40;2.50;;;;;6.40;100938.00;;;;9859044;30;20321;-78
2023/01/14 02:53:58;;;;;;;19.53;3.70;;;;;6.30;100933.00;;;;9871065;29;20204;-78
2023/01/14 02:59:01;;;;;;;9.10;2.10;;;;;6.40;100925.00;;;;9874395;30;20207;-78
2023/01/14 03:04:36;;;;;;;17.07;2.93;;;;;6.40;100907.00;;;;9899951;30;20192;-78
2023/01/14 03:09:56;;;;;;;14.33;2.63;;;;;6.30;100890.00;;;;9869216;29;20699;-78
2023/01/14 03:14:58;;;;;;;18.50;2.73;;;;;6.30;100887.00;;;;9868397;30;20207;-78
2023/01/14 03:20:09;;;;;;;12.20;3.27;;;;;6.30;100856.00;;;;9889170;30;20216;-78
2023/01/14 03:25:14;;;;;;;6.90;2.50;;;;;6.30;100855.00;;;;9848945;30;20200;-78
2023/01/14 03:30:24;;;;;;;14.00;3.43;;;;;6.20;100850.00;;;;9874796;30;20679;-78
2023/01/14 03:35:32;;;;;;;13.30;2.43;;;;;6.20;100830.00;;;;9873133;30;20294;-78
2023/01/14 03:40:37;;;;;;;16.83;3.07;;;;;6.20;100837.00;;;;9861838;30;20204;-78
2023/01/14 03:45:45;;;;;;;13.63;2.23;;;;;6.20;100820.00;;;;9884469;30;20203;-78
2023/01/14 03:50:53;;;;;;;11.93;2.77;;;;;6.20;100804.00;;;;9902273;30;20203;-78
2023/01/14 03:56:20;;;;;;;12.20;2.40;;;;;6.30;100793.00;;;;9846747;30;20216;-78
2023/01/14 04:01:32;;;;;;;13.13;1.87;;;;;6.40;100773.00;;;;9874919;30;20310;-78
2023/01/14 04:06:35;;;;;;;15.03;2.60;;;;;6.40;100762.00;;;;9871172;30;20200;-78
2023/01/14 04:11:38;;;;;;;17.73;3.17;;;;;6.40;100740.00;;;;9873035;29;20223;-78
2023/01/14 04:16:40;;;;;;;8.43;2.30;;;;;6.50;100727.00;;;;9872549;30;20204;-78
2023/01/14 04:21:42;;;;;;;16.67;3.13;;;;;6.50;100716.00;;;;9864156;30;20779;-78
2023/01/14 04:26:44;;;;;;;9.97;2.30;;;;;6.50;100713.00;;;;9857561;30;20246;-78
2023/01/14 04:31:46;;;;;;;13.53;2.63;;;;;6.50;100694.00;;;;9858302;30;20200;-78
2023/01/14 04:36:48;;;;;;;14.17;3.10;;;;;6.50;100690.00;;;;9867574;30;20211;-78
2023/01/14 04:47:10;;;;;;;16.20;2.67;;;;;6.60;100682.00;;;;9902848;29;20737;-78
2023/01/14 04:52:12;;;;;;;18.50;2.63;;;;;6.70;100680.00;;;;9871867;30;20289;-78
2023/01/14 04:57:14;;;;;;;13.20;2.57;;;;;6.70;100663.00;;;;9872578;30;20204;-78
2023/01/14 05:02:16;;;;;;;13.83;2.67;;;;;6.80;100662.00;;;;9901734;30;20200;-78
2023/01/14 05:07:18;;;;;;;14.23;2.87;;;;;6.90;100658.00;;;;9887639;29;20207;-78
2023/01/14 05:12:20;;;;;;;14.57;2.63;;;;;6.90;100645.00;;;;9871781;29;20231;-78
2023/01/14 05:17:22;;;;;;;11.60;2.33;;;;;7.00;100634.00;;;;9872222;29;20530;-78
2023/01/14 05:22:24;;;;;;;10.57;2.43;;;;;7.00;100611.00;;;;9870100;29;20215;-78
2023/01/14 05:27:26;;;;;;;9.33;2.60;;;;;6.90;100611.00;;;;9878422;30;20199;-78
2023/01/14 05:32:28;;;;;;;8.50;2.17;;;;;6.90;100597.00;;;;9863170;29;20269;-78
2023/01/14 05:37:32;;;;;;;7.20;2.00;;;;;6.80;100587.00;;;;9872930;29;20204;-77
2023/01/14 05:47:54;;;;;;;9.30;2.40;;;;;6.70;100566.00;;;;9883060;30;20214;-77
2023/01/14 05:52:56;;;;;;;11.93;2.07;;;;;6.60;100564.00;;;;9886914;30;20224;-77
2023/01/14 05:58:00;;;;;;;7.17;1.87;;;;;6.60;100553.00;;;;9875212;30;20219;-78
2023/01/14 06:08:23;;;;;;;6.43;2.13;;;;;6.60;100529.00;;;;9886125;30;20195;-77
2023/01/14 06:13:24;;;;;;;11.23;1.93;;;;;6.60;100510.00;;;;9899136;29;20244;-78
2023/01/14 06:18:27;;;;;;;6.33;2.10;;;;;6.60;100491.00;;;;9858329;30;20631;-78
2023/01/14 06:23:29;;;;;;;5.27;1.40;;;;;6.70;100466.00;;;;9874502;30;20203;-78
2023/01/14 06:28:31;;;;;;;6.57;2.00;;;;;6.70;100452.00;;;;9857202;29;20311;-78
2023/01/14 06:33:33;;;;;;;6.37;1.50;;;;;6.80;100449.00;;;;9875262;30;20207;-78
2023/01/14 06:38:36;;;;;;;6.40;2.10;;;;;6.80;100441.00;;;;9873495;30;20239;-78
2023/01/14 06:43:42;;;;;;;7.97;1.90;;;;;6.90;100426.00;;;;9874406;29;20207;-78
2023/01/14 06:48:44;;;;;;;4.27;1.80;;;;;7.00;100411.00;;;;9872594;30;20214;-77
2023/01/14 06:53:46;;;;;;;3.93;1.50;;;;;7.00;100391.00;;;;9866997;30;20625;-78
2023/01/14 06:58:49;;;;;;;6.10;2.40;;;;;7.10;100376.00;;;;9872201;30;20211;-77
2023/01/14 07:03:51;;;;;;;3.57;1.57;;;;;7.20;100367.00;;;;9879748;30;20215;-78
2023/01/14 07:08:53;;;;;;;2.83;1.33;;;;;7.30;100347.00;;;;9892826;29;20200;-78
2023/01/14 07:13:55;;;;;;;6.40;1.67;;;;;7.40;100345.00;;;;9840127;30;20819;-78
2023/01/14 07:18:58;;;;;;;4.13;1.37;;;;;7.50;100333.00;;;;9849015;30;20302;-78
2023/01/14 07:24:00;;;;;;;4.17;1.17;;;;;7.60;100322.00;;;;9856782;30;20191;-78
2023/01/14 07:29:02;;;;;;;4.80;1.40;;;;;7.70;100293.00;;;;9883295;30;20645;-78
2023/01/14 07:34:04;;;;;;;4.93;1.33;;;;;7.80;100292.00;;;;9855198;30;20200;-78
2023/01/14 07:39:06;;;;;;;7.97;1.67;;;;;7.90;100277.00;;;;9878361;30;20225;-78
2023/01/14 07:44:08;;;;;;;5.70;1.87;;;;;8.00;100265.00;;;;9881129;30;20199;-78
2023/01/14 07:49:10;;;;;;;3.27;1.57;;;;;8.10;100246.00;;;;9837583;29;20210;-78
2023/01/14 07:54:12;;;;;;;4.07;1.47;;;;;8.20;100227.00;;;;9856004;30;20237;-78
2023/01/14 07:59:14;;;;;;;5.43;1.57;;;;;8.30;100220.00;;;;9883859;30;20215;-78
2023/01/14 08:04:17;;;;;;;4.27;1.37;;;;;8.40;100202.00;;;;9871018;30;20279;-78
2023/01/14 08:09:19;;;;;;;5.23;1.37;;;;;8.40;100190.00;;;;9868713;30;20200;-78
2023/01/14 08:14:21;;;;;;;8.67;1.80;;;;;8.30;100189.00;;;;9869393;30;20251;-78
2023/01/14 08:19:23;;;;;;;3.77;1.40;;;;;8.20;100167.00;;;;9878359;30;20219;-79
2023/01/14 08:24:25;;;;;;;9.73;1.90;;;;;8.10;100156.00;;;;9872159;30;21545;-79
2023/01/14 08:29:27;;;;;;;6.33;1.40;;;;;8.10;100124.00;;;;9870840;30;20253;-78
2023/01/14 08:34:29;;;;;;;7.30;1.70;;;;;8.20;100106.00;;;;9871596;30;20586;-79
2023/01/14 08:39:31;;;;;;;6.47;1.30;;;;;8.20;100081.00;;;;9880048;30;20212;-79
2023/01/14 08:44:33;;;;;;;5.57;1.30;;;;;8.20;100081.00;;;;9868333;30;20216;-80
2023/01/14 08:49:35;;;;;;;3.63;1.40;;;;;8.30;100064.00;;;;9858203;30;20200;-79
2023/01/14 08:54:37;;;;;;;5.83;1.40;;;;;8.30;100032.00;;;;9856932;30;20681;-78
2023/01/14 08:59:39;;;;;;;6.90;1.50;;;;;8.30;100030.00;;;;9862750;30;20303;-78
2023/01/14 09:04:40;;;;;;;3.93;1.57;;;;;8.30;100027.00;;;;9875259;30;20239;-78
2023/01/14 09:20:38;;;;;;;2.73;0.83;;;;;8.50;99983.00;;;;9891394;30;20215;-78
2023/01/14 09:25:40;;;;;;;0.60;0.40;;;;;8.60;100010.00;;;;9877315;30;20207;-78
2023/01/14 09:30:42;;;;;;;4.00;0.63;;;;;8.60;99992.00;;;;9886215;30;20201;-78
2023/01/14 09:35:44;;;;;;;2.40;0.77;;;;;8.70;99984.00;;;;9885254;29;20291;-77
2023/01/14 09:40:47;;;;;;;0.53;0.40;;;;;8.70;99957.00;;;;9866468;30;20228;-78
2023/01/14 09:46:02;;;;;;;0.50;0.50;;;;;8.80;99951.00;;;;9870929;30;20207;-79
2023/01/14 09:51:23;;;;;;;2.90;0.87;;;;;8.90;99930.00;;;;9877487;30;20245;-77
2023/01/14 09:56:33;;;;;;;0.50;0.50;;;;;8.90;99926.00;;;;9866973;30;20204;-79
2023/01/14 10:01:44;;;;;;;1.67;0.50;;;;;9.00;99915.00;;;;9844422;29;20216;-79
2023/01/14 10:06:51;;;;;;;0.43;0.40;;;;;9.10;99894.00;;;;9886369;30;20208;-79
2023/01/14 10:11:57;;;;;;;0.27;0.27;;;;;9.20;99893.00;;;;9889958;29;20640;-78
2023/01/14 10:17:07;;;;;;;0.97;0.37;;;;;9.30;99888.00;;;;9862694;29;20536;-79
2023/01/14 10:22:36;;;;;;;3.97;0.60;;;;;9.30;99842.00;;;;9883557;29;20208;-79
2023/01/14 10:27:40;;;;;;;1.03;0.60;;;;;9.20;99857.00;;;;9862566;29;20203;-78
2023/01/14 10:32:42;;;;;;;0.20;0.20;;;;;9.30;99835.00;;;;9863910;29;20203;-79
2023/01/14 10:37:44;;;;;;;0.20;0.20;;;;;9.20;99834.00;;;;9859798;29;20886;-79
2023/01/14 10:42:46;;;;;;;1.73;0.53;;;;;9.30;99824.00;;;;9855079;29;20287;-78
2023/01/14 10:47:53;;;;;;;0.30;0.30;;;;;9.30;99822.00;;;;9880331;29;20200;-79
2023/01/14 10:53:14;;;;;;;3.83;0.60;;;;;9.20;99801.00;;;;9871214;29;20210;-78
2023/01/14 10:58:27;;;;;;;0.63;0.30;;;;;9.20;99798.00;;;;9869965;30;20306;-78
2023/01/14 11:03:37;;;;;;;1.63;0.27;;;;;9.30;99789.00;;;;9886342;29;20262;-80
2023/01/14 11:08:45;;;;;;;8.13;1.17;;;;;9.50;99751.00;;;;9852352;30;20217;-79
2023/01/14 11:13:50;;;;;;;0.27;0.27;;;;;9.50;99734.00;;;;9851499;30;20642;-78
2023/01/14 11:19:12;;;;;;;0.20;0.20;;;;;9.50;99738.00;;;;9871141;30;20808;-80
2023/01/14 11:24:36;;;;;;;0.33;0.33;;;;;9.60;99723.00;;;;9873185;30;20210;-78
2023/01/14 11:29:55;;;;;;;2.77;0.40;;;;;9.60;99713.00;;;;9886106;29;20833;-79
2023/01/14 11:35:00;;;;;;;0.73;0.53;;;;;9.60;99688.00;;;;9858004;30;20214;-79
2023/01/14 11:40:04;;;;;;;0.30;0.30;;;;;9.60;99684.00;;;;9901282;29;20211;-79
2023/01/14 11:45:11;;;;;;;0.30;0.30;;;;;9.70;99682.00;;;;9865966;30;20215;-79
2023/01/14 11:50:32;;;;;;;0.47;0.37;;;;;9.70;99662.00;;;;9854817;30;20217;-79
2023/01/14 11:55:38;;;;;;;0.30;0.30;;;;;9.70;99639.00;;;;9859172;29;20261;-80
2023/01/14 12:00:44;;;;;;;0.93;0.50;;;;;9.70;99614.00;;;;9900329;29;20492;-78
2023/01/14 12:05:47;;;;;;;1.20;0.30;;;;;9.80;99611.00;;;;9880716;29;20243;-79
2023/01/14 12:10:51;;;;;;;2.43;0.40;;;;;9.90;99618.00;;;;9848570;29;20258;-79
2023/01/14 12:21:36;;;;;;;0.20;0.20;;;;;10.00;99573.00;;;;9883336;29;20621;-80
2023/01/14 12:26:42;;;;;;;0.30;0.30;;;;;10.10;99562.00;;;;9868783;29;20212;-80
2023/01/14 12:31:49;;;;;;;0.40;0.40;;;;;10.00;99556.00;;;;9869612;29;21038;-79
2023/01/14 12:37:03;;;;;;;1.33;0.70;;;;;10.10;99530.00;;;;9857598;29;20239;-78
2023/01/14 12:47:54;;;;;;;1.33;0.57;;;;;10.30;99509.00;;;;9887391;29;20206;-78
2023/01/14 12:52:58;;;;;;;0.70;0.70;;;;;10.30;99491.00;;;;9903520;29;20204;-78
2023/01/14 12:58:01;;;;;;;4.67;1.07;;;;;10.40;99482.00;;;;9870637;29;20306;-79
2023/01/14 13:03:13;;;;;;;0.90;0.57;;;;;10.50;99458.00;;;;9864504;29;20219;-79
2023/01/14 13:08:33;;;;;;;2.47;0.70;;;;;10.60;99462.00;;;;9886269;29;20663;-79
2023/01/14 13:13:36;;;;;;;3.30;0.77;;;;;10.80;99447.00;;;;9886788;29;20227;-79
2023/01/14 13:18:40;;;;;;;0.60;0.60;;;;;10.80;99428.00;;;;9884612;29;20211;-80
2023/01/14 13:23:42;;;;;;;1.83;0.90;;;;;10.90;99427.00;;;;9877492;29;20266;-79
2023/01/14 13:29:03;;;;;;;2.67;0.90;;;;;10.80;99414.00;;;;9864762;29;20595;-79
2023/01/14 13:34:21;;;;;;;2.17;0.53;;;;;10.90;99403.00;;;;9869229;30;20626;-78
2023/01/14 13:39:23;;;;;;;1.47;0.60;;;;;10.90;99384.00;;;;9827084;30;20311;-79
2023/01/14 13:44:30;;;;;;;3.60;0.53;;;;;10.90;99375.00;;;;9847556;30;20210;-79
2023/01/14 13:49:37;;;;;;;4.40;0.83;;;;;10.90;99370.00;;;;9892639;29;20184;-78
2023/01/14 13:54:40;;;;;;;1.70;0.87;;;;;10.90;99366.00;;;;9871513;30;20212;-77
2023/01/14 13:59:49;;;;;;;2.07;1.00;;;;;10.90;99353.00;;;;9889767;29;20204;-77
2023/01/14 14:04:55;;;;;;;0.50;0.50;;;;;10.90;99345.00;;;;9884662;30;20192;-78
2023/01/14 14:10:02;;;;;;;1.17;0.90;;;;;10.90;99353.00;;;;9875443;29;20225;-78
2023/01/14 14:15:16;;;;;;;0.73;0.50;;;;;10.80;99328.00;;;;9891396;29;20572;-78
2023/01/14 14:20:19;;;;;;;0.60;0.43;;;;;10.80;99328.00;;;;9890652;29;20227;-78
2023/01/14 14:25:31;;;;;;;1.23;0.67;;;;;10.80;99320.00;;;;9867895;29;20204;-78
2023/01/14 14:30:42;;;;;;;0.83;0.80;;;;;10.90;99318.00;;;;9847083;30;20194;-78
2023/01/14 14:35:44;;;;;;;1.13;0.60;;;;;10.90;99320.00;;;;9899073;29;20203;-78
2023/01/14 14:40:48;;;;;;;0.83;0.53;;;;;10.90;99309.00;;;;9912483;29;20573;-78
2023/01/14 14:46:05;;;;;;;3.10;0.67;;;;;10.90;99293.00;;;;9866620;30;20207;-78
2023/01/14 14:51:24;;;;;;;5.00;0.77;;;;;10.90;99294.00;;;;9876444;29;20191;-78
2023/01/14 14:56:29;;;;;;;0.57;0.50;;;;;10.90;99289.00;;;;9870473;29;20204;-78
2023/01/14 15:01:36;;;;;;;0.60;0.60;;;;;10.80;99307.00;;;;9873226;29;20216;-78
2023/01/14 15:06:39;;;;;;;0.70;0.60;;;;;10.80;99294.00;;;;9874604;29;20890;-78
2023/01/14 15:11:45;;;;;;;0.73;0.70;;;;;10.80;99278.00;;;;9879289;30;20233;-77
2023/01/14 15:16:51;;;;;;;0.80;0.60;;;;;10.70;99270.00;;;;9880959;30;20252;-78
2023/01/14 15:22:00;;;;;;;1.13;0.63;;;;;10.70;99262.00;;;;9856464;30;20272;-78
2023/01/14 15:27:03;;;;;;;0.70;0.60;;;;;10.70;99271.00;;;;9887454;29;20199;-78
2023/01/14 15:32:26;;;;;;;0.97;0.60;;;;;10.70;99266.00;;;;9853917;29;20203;-78
2023/01/14 15:37:28;;;;;;;1.77;0.90;;;;;10.60;99264.00;;;;9918631;29;20200;-78
2023/01/14 15:42:30;;;;;;;0.40;0.40;;;;;10.60;99273.00;;;;9873628;29;20226;-78
2023/01/14 15:47:33;;;;;;;0.80;0.50;;;;;10.60;99259.00;;;;9887050;29;20196;-78
2023/01/14 15:52:36;;;;;;;5.63;4.43;;;;;10.70;99259.00;;;;9859304;30;20648;-78
2023/01/14 15:57:41;;;;;;;0.97;0.87;;;;;10.70;99267.00;;;;9903371;30;20195;-77
2023/01/14 16:02:43;;;;;;;0.60;0.50;;;;;10.60;99259.00;;;;9901966;29;20226;-77
2023/01/14 16:07:45;;;;;;;0.80;0.70;;;;;10.70;99268.00;;;;9856914;29;20207;-79
2023/01/14 16:12:48;;;;;;;4.50;2.23;;;;;10.70;99255.00;;;;9889922;29;20251;-77
2023/01/14 16:17:50;;;;;;;3.53;2.63;;;;;10.70;99251.00;;;;9861297;29;20663;-78
2023/01/14 16:22:52;;;;;;;0.40;0.40;;;;;10.70;99241.00;;;;9863608;29;20239;-77
2023/01/14 16:27:54;;;;;;;0.43;0.43;;;;;10.80;99236.00;;;;9907496;29;20240;-78
2023/01/14 16:32:56;;;;;;;1.03;0.77;;;;;10.80;99235.00;;;;9906036;29;20346;-78
2023/01/14 16:37:59;;;;;;;2.40;1.63;;;;;10.90;99238.00;;;;9857485;29;20227;-78
2023/01/14 16:43:02;;;;;;;1.33;1.00;;;;;10.90;99235.00;;;;9885045;29;20208;-78
2023/01/14 16:48:04;;;;;;;1.87;1.07;;;;;10.90;99219.00;;;;9853563;29;20307;-78
2023/01/14 16:53:06;;;;;;;0.83;0.83;;;;;10.90;99218.00;;;;9872047;29;20245;-77
2023/01/14 16:58:10;;;;;;;1.03;0.90;;;;;11.00;99241.00;;;;9866481;29;20204;-77
2023/01/14 17:03:15;;;;;;;9.73;6.27;;;;;11.00;99244.00;;;;9862151;29;20242;-77
2023/01/14 17:08:17;;;;;;;3.27;1.67;;;;;11.10;99234.00;;;;9893285;29;20716;-77
2023/01/14 17:13:19;;;;;;;2.40;1.90;;;;;11.10;99246.00;;;;9886519;29;20239;-78
2023/01/14 17:18:21;;;;;;;2.17;1.87;;;;;11.10;99257.00;;;;9898475;29;20206;-77
2023/01/14 17:23:23;;;;;;;1.27;1.17;;;;;11.20;99253.00;;;;9876517;29;20272;-78
2023/01/14 17:28:38;;;;;;;1.00;0.90;;;;;11.20;99249.00;;;;10468043;28;20903;-76
2023/01/14 17:33:41;;;;;;;6.60;3.90;;;;;11.20;99262.00;;;;10426923;28;20197;-76
2023/01/14 17:38:42;;;;;;;4.00;2.23;;;;;11.20;99246.00;;;;10424197;28;20650;-77
2023/01/14 17:43:44;;;;;;;8.07;4.77;;;;;11.30;99277.00;;;;10433555;28;20217;-77
2023/01/14 17:48:46;;;;;;;4.67;2.80;;;;;11.30;99283.00;;;;10425085;28;20214;-76
2023/01/14 17:53:49;;;;;;;1.30;1.20;;;;;11.30;99289.00;;;;10424499;28;20194;-76
2023/01/14 17:58:51;;;;;;;1.10;1.00;;;;;11.30;99296.00;;;;10403789;28;20776;-76
2023/01/14 18:03:54;;;;;;;1.20;1.10;;;;;11.30;99306.00;;;;10430140;28;20699;-76
2023/01/14 18:08:57;;;;;;;2.17;1.30;;;;;11.30;99306.00;;;;10396187;28;20604;-77
2023/01/14 18:13:59;;;;;;;1.50;1.10;;;;;11.30;99309.00;;;;10384557;28;20249;-77
2023/01/14 18:19:01;;;;;;;0.87;0.87;;;;;11.30;99326.00;;;;10398666;28;20870;-76
2023/01/14 18:24:05;;;;;;;0.80;0.80;;;;;11.30;99334.00;;;;10365165;28;20255;-77
2023/01/14 18:29:07;;;;;;;1.20;1.10;;;;;11.20;99343.00;;;;10383075;28;20237;-76
2023/01/14 18:34:10;;;;;;;1.47;0.93;;;;;11.20;99335.00;;;;10381580;28;20596;-76
2023/01/14 18:39:14;;;;;;;1.17;0.90;;;;;11.20;99360.00;;;;10344240;28;20200;-76
2023/01/14 18:44:16;;;;;;;2.57;2.00;;;;;11.10;99356.00;;;;10320975;28;20266;-77
2023/01/14 18:49:21;;;;;;;2.73;1.30;;;;;11.00;99350.00;;;;10354444;28;20199;-77
2023/01/14 18:54:23;;;;;;;2.07;1.50;;;;;10.90;99331.00;;;;10348249;28;20261;-77
2023/01/14 18:59:25;;;;;;;2.33;1.30;;;;;10.80;99342.00;;;;10354293;28;20204;-77
2023/01/14 19:04:27;;;;;;;4.23;1.10;;;;;10.70;99364.00;;;;10315551;28;20200;-77
2023/01/14 19:09:29;;;;;;;2.77;1.23;;;;;10.60;99385.00;;;;10362302;28;20261;-77
2023/01/14 19:14:38;;;;;;;5.57;1.90;;;;;10.50;99405.00;;;;10361114;28;20234;-77
2023/01/14 19:19:40;;;;;;;7.63;1.17;;;;;10.40;99401.00;;;;10315594;28;20210;-77
2023/01/14 19:24:42;;;;;;;6.53;1.50;;;;;10.20;99390.00;;;;10343285;28;20274;-77
2023/01/14 19:29:44;;;;;;;5.57;1.90;;;;;10.20;99365.00;;;;10370148;28;20203;-76
2023/01/14 19:34:46;;;;;;;5.47;1.60;;;;;10.10;99392.00;;;;10366767;28;20971;-77
2023/01/14 19:39:48;;;;;;;8.57;1.80;;;;;10.00;99373.00;;;;10338267;28;20460;-77
2023/01/14 19:44:50;;;;;;;10.23;2.27;;;;;10.00;99386.00;;;;10353654;28;20224;-77
2023/01/14 19:49:52;;;;;;;10.97;2.33;;;;;10.00;99416.00;;;;10332419;28;20278;-78
2023/01/14 19:54:54;;;;;;;7.03;2.10;;;;;10.00;99401.00;;;;10365753;28;20188;-78
2023/01/14 19:59:55;;;;;;;5.80;2.10;;;;;10.00;99406.00;;;;10354237;28;20294;-78
2023/01/14 20:04:57;;;;;;;6.57;1.90;;;;;9.90;99416.00;;;;10354466;28;20208;-79
2023/01/14 20:10:00;;;;;;;6.97;1.73;;;;;9.90;99417.00;;;;10351902;28;20298;-78
2023/01/14 20:15:02;;;;;;;7.57;2.80;;;;;9.90;99414.00;;;;10375990;28;20195;-78
2023/01/14 20:20:04;;;;;;;9.03;2.00;;;;;9.80;99414.00;;;;10336920;28;20234;-79
2023/01/14 20:25:06;;;;;;;12.53;2.60;;;;;9.80;99403.00;;;;10370362;28;20211;-78
2023/01/14 20:30:09;;;;;;;9.37;1.97;;;;;9.80;99405.00;;;;10328690;28;20231;-78
2023/01/14 20:35:11;;;;;;;4.63;1.50;;;;;9.70;99416.00;;;;10340226;28;20653;-78
2023/01/14 20:40:13;;;;;;;5.97;1.97;;;;;9.70;99425.00;;;;10369624;28;20188;-78
2023/01/14 20:45:15;;;;;;;12.10;3.57;;;;;9.70;99418.00;;;;10353896;28;20673;-79
2023/01/14 20:50:17;;;;;;;4.90;1.97;;;;;9.60;99399.00;;;;10325083;28;20203;-79
2023/01/14 20:55:19;;;;;;;5.37;1.90;;;;;9.60;99403.00;;;;10351768;28;20540;-75
2023/01/14 21:00:21;;;;;;;5.43;1.87;;;;;9.50;99411.00;;;;10351391;28;20187;-78
2023/01/14 21:05:24;;;;;;;6.80;1.40;;;;;9.40;99406.00;;;;10350576;28;20211;-78
2023/01/14 21:10:27;;;;;;;4.57;1.43;;;;;9.40;99408.00;;;;10368226;28;20306;-76
2023/01/14 21:26:10;;;;;;;6.33;1.37;;;;;9.30;99447.00;;;;10351368;28;20227;-78
2023/01/14 21:31:12;;;;;;;2.93;1.70;;;;;9.30;99452.00;;;;10351141;28;20654;-78
2023/01/14 21:36:14;;;;;;;8.97;1.80;;;;;9.20;99437.00;;;;10334306;28;20187;-78
2023/01/14 21:46:36;;;;;;;3.40;1.27;;;;;9.00;99458.00;;;;10349682;28;20215;-78
2023/01/14 21:51:38;;;;;;;4.67;1.43;;;;;8.90;99464.00;;;;10323946;28;20670;-78
2023/01/14 21:56:40;;;;;;;4.70;1.40;;;;;8.60;99465.00;;;;10337221;28;20188;-78
2023/01/14 22:01:42;;;;;;;2.53;1.00;;;;;8.50;99467.00;;;;10331699;28;20203;-78
2023/01/14 22:06:45;;;;;;;3.40;1.07;;;;;8.40;99480.00;;;;10365843;28;20682;-78
2023/01/14 22:11:48;;;;;;;4.20;1.23;;;;;8.30;99514.00;;;;10319513;28;20306;-78
2023/01/14 22:16:50;;;;;;;3.57;1.03;;;;;8.30;99509.00;;;;10376207;28;20183;-79
2023/01/14 22:21:55;;;;;;;1.87;0.60;;;;;8.20;99529.00;;;;10357364;28;20200;-78
2023/01/14 22:26:57;;;;;;;6.03;0.90;;;;;8.00;99532.00;;;;10332918;28;20231;-78
2023/01/14 22:31:59;;;;;;;1.57;0.70;;;;;7.70;99520.00;;;;10327885;28;20204;-78
2023/01/14 22:37:01;;;;;;;2.73;0.97;;;;;7.50;99522.00;;;;10366866;28;20210;-78
2023/01/14 22:42:03;;;;;;;0.93;0.40;;;;;7.30;99470.00;;;;10352414;28;20191;-78
2023/01/14 22:47:05;;;;;;;2.07;0.60;;;;;7.20;99477.00;;;;10355819;28;20750;-78
2023/01/14 22:52:09;;;;;;;3.90;0.63;;;;;7.30;99474.00;;;;10347891;28;20383;-79
2023/01/14 22:57:11;;;;;;;3.07;1.20;;;;;7.40;99505.00;;;;10355769;28;20200;-78
2023/01/14 23:02:13;;;;;;;5.97;1.00;;;;;7.40;99511.00;;;;10360196;28;20226;-78
2023/01/14 23:07:16;;;;;;;3.17;0.77;;;;;7.50;99505.00;;;;10371442;28;20206;-78
2023/01/14 23:12:18;;;;;;;2.80;0.73;;;;;7.50;99501.00;;;;10353499;28;20207;-78
2023/01/14 23:17:26;;;;;;;3.13;0.93;;;;;7.50;99498.00;;;;10352309;28;20198;-78
2023/01/14 23:27:48;;;;;;;4.93;0.80;;;;;7.50;99496.00;;;;10361725;28;20218;-78
2023/01/14 23:32:50;;;;;;;5.30;0.93;;;;;7.50;99506.00;;;;10332287;28;20227;-78
2023/01/14 23:37:52;;;;;;;5.30;1.27;;;;;7.50;99516.00;;;;10353907;28;20227;-78
2023/01/14 23:42:54;;;;;;;7.07;1.63;;;;;7.50;99499.00;;;;10362386;28;20227;-78
2023/01/14 23:47:56;;;;;;;6.13;1.23;;;;;7.50;99494.00;;;;10359487;28;20204;-78
2023/01/14 23:52:58;;;;;;;7.43;1.30;;;;;7.50;99489.00;;;;10314438;28;20203;-78
2023/01/14 23:58:00;;;;;;;6.17;1.47;;;;;7.40;99501.00;;;;10369833;28;20199;-78
